sensor_id;sensor_type;location;lat;lon;timestamp;P1;durP1;ratioP1;P2;durP2;ratioP2
2464;SDS011;1244;54.326;10.074;2023-05-07T00:02:02;0.20;;;0.20;;
2464;SDS011;1244;54.326;10.074;2023-05-07T00:04:28;0.20;;;0.20;;
2464;SDS011;1244;54.326;10.074;2023-05-07T00:07:00;0.30;;;0.30;;
2464;SDS011;1244;54.326;10.074;2023-05-07T00:09:26;0.20;;;0.20;;
2464;SDS011;1244;54.326;10.074;2023-05-07T00:11:52;0.20;;;0.20;;
2464;SDS011;1244;54.326;10.074;2023-05-07T00:14:17;0.20;;;0.20;;
2464;SDS011;1244;54.326;10.074;2023-05-07T00:16:43;0.20;;;0.20;;
2464;SDS011;1244;54.326;10.074;2023-05-07T00:19:08;0.20;;;0.20;;
2464;SDS011;1244;54.326;10.074;2023-05-07T00:21:34;0.20;;;0.20;;
2464;SDS011;1244;54.326;10.074;2023-05-07T00:23:59;0.20;;;0.20;;
2464;SDS011;1244;54.326;10.074;2023-05-07T00:26:25;0.20;;;0.20;;
2464;SDS011;1244;54.326;10.074;2023-05-07T00:28:50;0.20;;;0.20;;
2464;SDS011;1244;54.326;10.074;2023-05-07T00:31:16;0.20;;;0.20;;
2464;SDS011;1244;54.326;10.074;2023-05-07T00:33:41;0.20;;;0.20;;
2464;SDS011;1244;54.326;10.074;2023-05-07T00:36:07;0.20;;;0.20;;
2464;SDS011;1244;54.326;10.074;2023-05-07T00:38:33;0.20;;;0.20;;
2464;SDS011;1244;54.326;10.074;2023-05-07T00:40:58;0.20;;;0.20;;
2464;SDS011;1244;54.326;10.074;2023-05-07T00:43:24;0.20;;;0.20;;
2464;SDS011;1244;54.326;10.074;2023-05-07T00:45:50;0.20;;;0.20;;
2464;SDS011;1244;54.326;10.074;2023-05-07T00:48:16;0.20;;;0.20;;
2464;SDS011;1244;54.326;10.074;2023-05-07T00:50:42;0.20;;;0.20;;
2464;SDS011;1244;54.326;10.074;2023-05-07T00:53:08;0.20;;;0.20;;
2464;SDS011;1244;54.326;10.074;2023-05-07T00:55:34;0.20;;;0.20;;
2464;SDS011;1244;54.326;10.074;2023-05-07T00:58:00;0.20;;;0.20;;
2464;SDS011;1244;54.326;10.074;2023-05-07T01:00:26;0.20;;;0.20;;
2464;SDS011;1244;54.326;10.074;2023-05-07T01:02:52;0.20;;;0.20;;
2464;SDS011;1244;54.326;10.074;2023-05-07T01:05:18;0.20;;;0.20;;
2464;SDS011;1244;54.326;10.074;2023-05-07T01:07:44;0.20;;;0.20;;
2464;SDS011;1244;54.326;10.074;2023-05-07T01:10:11;0.30;;;0.30;;
2464;SDS011;1244;54.326;10.074;2023-05-07T01:12:37;0.30;;;0.30;;
2464;SDS011;1244;54.326;10.074;2023-05-07T01:15:05;0.30;;;0.30;;
2464;SDS011;1244;54.326;10.074;2023-05-07T01:17:33;0.20;;;0.20;;
2464;SDS011;1244;54.326;10.074;2023-05-07T01:20:03;0.30;;;0.30;;
2464;SDS011;1244;54.326;10.074;2023-05-07T01:22:33;0.30;;;0.30;;
2464;SDS011;1244;54.326;10.074;2023-05-07T01:25:01;0.30;;;0.30;;
2464;SDS011;1244;54.326;10.074;2023-05-07T01:27:28;0.20;;;0.20;;
2464;SDS011;1244;54.326;10.074;2023-05-07T01:29:53;0.23;;;0.23;;
2464;SDS011;1244;54.326;10.074;2023-05-07T01:32:21;0.30;;;0.30;;
2464;SDS011;1244;54.326;10.074;2023-05-07T01:34:57;0.20;;;0.20;;
2464;SDS011;1244;54.326;10.074;2023-05-07T01:37:24;0.30;;;0.30;;
2464;SDS011;1244;54.326;10.074;2023-05-07T01:39:50;0.20;;;0.20;;
2464;SDS011;1244;54.326;10.074;2023-05-07T01:42:17;0.20;;;0.20;;
2464;SDS011;1244;54.326;10.074;2023-05-07T01:44:42;0.20;;;0.20;;
2464;SDS011;1244;54.326;10.074;2023-05-07T01:47:08;0.20;;;0.20;;
2464;SDS011;1244;54.326;10.074;2023-05-07T01:49:34;0.20;;;0.20;;
2464;SDS011;1244;54.326;10.074;2023-05-07T01:51:59;0.20;;;0.20;;
2464;SDS011;1244;54.326;10.074;2023-05-07T01:54:26;0.20;;;0.20;;
2464;SDS011;1244;54.326;10.074;2023-05-07T01:56:52;0.30;;;0.30;;
2464;SDS011;1244;54.326;10.074;2023-05-07T01:59:18;0.30;;;0.30;;
2464;SDS011;1244;54.326;10.074;2023-05-07T02:01:44;0.20;;;0.20;;
2464;SDS011;1244;54.326;10.074;2023-05-07T02:04:09;0.20;;;0.20;;
2464;SDS011;1244;54.326;10.074;2023-05-07T02:06:35;0.20;;;0.20;;
2464;SDS011;1244;54.326;10.074;2023-05-07T02:09:00;0.20;;;0.20;;
2464;SDS011;1244;54.326;10.074;2023-05-07T02:11:26;0.30;;;0.30;;
2464;SDS011;1244;54.326;10.074;2023-05-07T02:13:52;0.20;;;0.20;;
2464;SDS011;1244;54.326;10.074;2023-05-07T02:16:18;0.20;;;0.20;;
2464;SDS011;1244;54.326;10.074;2023-05-07T02:18:44;0.20;;;0.20;;
2464;SDS011;1244;54.326;10.074;2023-05-07T02:21:10;0.20;;;0.20;;
2464;SDS011;1244;54.326;10.074;2023-05-07T02:23:35;0.20;;;0.20;;
2464;SDS011;1244;54.326;10.074;2023-05-07T02:26:01;0.20;;;0.20;;
2464;SDS011;1244;54.326;10.074;2023-05-07T02:28:26;0.30;;;0.30;;
2464;SDS011;1244;54.326;10.074;2023-05-07T02:30:52;0.30;;;0.30;;
2464;SDS011;1244;54.326;10.074;2023-05-07T02:33:17;0.30;;;0.30;;
2464;SDS011;1244;54.326;10.074;2023-05-07T02:35:43;0.30;;;0.30;;
2464;SDS011;1244;54.326;10.074;2023-05-07T02:38:08;0.20;;;0.20;;
2464;SDS011;1244;54.326;10.074;2023-05-07T02:40:35;0.20;;;0.20;;
2464;SDS011;1244;54.326;10.074;2023-05-07T02:43:04;0.20;;;0.20;;
2464;SDS011;1244;54.326;10.074;2023-05-07T02:45:30;0.20;;;0.20;;
2464;SDS011;1244;54.326;10.074;2023-05-07T02:47:56;0.20;;;0.20;;
2464;SDS011;1244;54.326;10.074;2023-05-07T02:50:22;0.30;;;0.30;;
2464;SDS011;1244;54.326;10.074;2023-05-07T02:52:47;0.20;;;0.20;;
2464;SDS011;1244;54.326;10.074;2023-05-07T02:55:13;0.20;;;0.20;;
2464;SDS011;1244;54.326;10.074;2023-05-07T02:57:39;0.20;;;0.20;;
2464;SDS011;1244;54.326;10.074;2023-05-07T03:00:14;0.20;;;0.20;;
2464;SDS011;1244;54.326;10.074;2023-05-07T03:02:41;0.20;;;0.20;;
2464;SDS011;1244;54.326;10.074;2023-05-07T03:05:06;0.20;;;0.20;;
2464;SDS011;1244;54.326;10.074;2023-05-07T03:07:33;0.20;;;0.20;;
2464;SDS011;1244;54.326;10.074;2023-05-07T03:10:00;0.30;;;0.30;;
2464;SDS011;1244;54.326;10.074;2023-05-07T03:12:25;0.20;;;0.20;;
2464;SDS011;1244;54.326;10.074;2023-05-07T03:14:50;0.20;;;0.20;;
2464;SDS011;1244;54.326;10.074;2023-05-07T03:17:16;0.30;;;0.30;;
2464;SDS011;1244;54.326;10.074;2023-05-07T03:19:41;0.20;;;0.20;;
2464;SDS011;1244;54.326;10.074;2023-05-07T03:22:07;0.20;;;0.20;;
2464;SDS011;1244;54.326;10.074;2023-05-07T03:24:32;0.20;;;0.20;;
2464;SDS011;1244;54.326;10.074;2023-05-07T03:26:58;0.20;;;0.20;;
2464;SDS011;1244;54.326;10.074;2023-05-07T03:29:23;0.20;;;0.20;;
2464;SDS011;1244;54.326;10.074;2023-05-07T03:31:49;0.20;;;0.20;;
2464;SDS011;1244;54.326;10.074;2023-05-07T03:34:14;0.20;;;0.20;;
2464;SDS011;1244;54.326;10.074;2023-05-07T03:36:41;0.20;;;0.20;;
2464;SDS011;1244;54.326;10.074;2023-05-07T03:39:07;0.20;;;0.20;;
2464;SDS011;1244;54.326;10.074;2023-05-07T03:41:33;0.20;;;0.20;;
2464;SDS011;1244;54.326;10.074;2023-05-07T03:43:58;0.30;;;0.30;;
2464;SDS011;1244;54.326;10.074;2023-05-07T03:46:24;0.23;;;0.23;;
2464;SDS011;1244;54.326;10.074;2023-05-07T03:48:51;0.30;;;0.30;;
2464;SDS011;1244;54.326;10.074;2023-05-07T03:51:16;0.20;;;0.20;;
2464;SDS011;1244;54.326;10.074;2023-05-07T03:53:42;0.20;;;0.20;;
2464;SDS011;1244;54.326;10.074;2023-05-07T03:56:07;0.20;;;0.20;;
2464;SDS011;1244;54.326;10.074;2023-05-07T03:58:33;0.20;;;0.20;;
2464;SDS011;1244;54.326;10.074;2023-05-07T04:00:58;0.20;;;0.20;;
2464;SDS011;1244;54.326;10.074;2023-05-07T04:03:24;0.30;;;0.30;;
2464;SDS011;1244;54.326;10.074;2023-05-07T04:05:49;0.30;;;0.30;;
2464;SDS011;1244;54.326;10.074;2023-05-07T04:08:15;0.30;;;0.30;;
2464;SDS011;1244;54.326;10.074;2023-05-07T04:10:40;0.30;;;0.30;;
2464;SDS011;1244;54.326;10.074;2023-05-07T04:13:06;0.30;;;0.30;;
2464;SDS011;1244;54.326;10.074;2023-05-07T04:15:31;0.30;;;0.30;;
2464;SDS011;1244;54.326;10.074;2023-05-07T04:17:57;0.30;;;0.30;;
2464;SDS011;1244;54.326;10.074;2023-05-07T04:20:23;0.30;;;0.30;;
2464;SDS011;1244;54.326;10.074;2023-05-07T04:22:48;0.30;;;0.30;;
2464;SDS011;1244;54.326;10.074;2023-05-07T04:25:14;0.20;;;0.20;;
2464;SDS011;1244;54.326;10.074;2023-05-07T04:27:41;0.20;;;0.20;;
2464;SDS011;1244;54.326;10.074;2023-05-07T04:30:07;0.20;;;0.20;;
2464;SDS011;1244;54.326;10.074;2023-05-07T04:32:32;0.20;;;0.20;;
2464;SDS011;1244;54.326;10.074;2023-05-07T04:34:58;0.23;;;0.23;;
2464;SDS011;1244;54.326;10.074;2023-05-07T04:37:25;0.20;;;0.20;;
2464;SDS011;1244;54.326;10.074;2023-05-07T04:39:50;0.20;;;0.20;;
2464;SDS011;1244;54.326;10.074;2023-05-07T04:42:16;0.20;;;0.20;;
2464;SDS011;1244;54.326;10.074;2023-05-07T04:44:43;0.30;;;0.30;;
2464;SDS011;1244;54.326;10.074;2023-05-07T04:47:09;0.20;;;0.20;;
2464;SDS011;1244;54.326;10.074;2023-05-07T04:49:35;0.27;;;0.27;;
2464;SDS011;1244;54.326;10.074;2023-05-07T04:52:00;0.30;;;0.30;;
2464;SDS011;1244;54.326;10.074;2023-05-07T04:54:26;0.30;;;0.30;;
2464;SDS011;1244;54.326;10.074;2023-05-07T04:56:51;0.20;;;0.20;;
2464;SDS011;1244;54.326;10.074;2023-05-07T04:59:17;0.30;;;0.30;;
2464;SDS011;1244;54.326;10.074;2023-05-07T05:01:43;0.20;;;0.20;;
2464;SDS011;1244;54.326;10.074;2023-05-07T05:04:08;0.20;;;0.20;;
2464;SDS011;1244;54.326;10.074;2023-05-07T05:06:34;0.20;;;0.20;;
2464;SDS011;1244;54.326;10.074;2023-05-07T05:08:59;0.20;;;0.20;;
2464;SDS011;1244;54.326;10.074;2023-05-07T05:11:24;0.20;;;0.20;;
2464;SDS011;1244;54.326;10.074;2023-05-07T05:13:50;0.20;;;0.20;;
2464;SDS011;1244;54.326;10.074;2023-05-07T05:16:16;0.30;;;0.30;;
2464;SDS011;1244;54.326;10.074;2023-05-07T05:18:41;0.20;;;0.20;;
2464;SDS011;1244;54.326;10.074;2023-05-07T05:21:07;0.20;;;0.20;;
2464;SDS011;1244;54.326;10.074;2023-05-07T05:23:32;0.20;;;0.20;;
2464;SDS011;1244;54.326;10.074;2023-05-07T05:25:58;0.30;;;0.30;;
2464;SDS011;1244;54.326;10.074;2023-05-07T05:28:24;0.20;;;0.20;;
2464;SDS011;1244;54.326;10.074;2023-05-07T05:30:49;0.20;;;0.20;;
2464;SDS011;1244;54.326;10.074;2023-05-07T05:33:15;0.20;;;0.20;;
2464;SDS011;1244;54.326;10.074;2023-05-07T05:35:41;0.30;;;0.30;;
2464;SDS011;1244;54.326;10.074;2023-05-07T05:38:07;0.20;;;0.20;;
2464;SDS011;1244;54.326;10.074;2023-05-07T05:40:32;0.30;;;0.30;;
2464;SDS011;1244;54.326;10.074;2023-05-07T05:42:58;0.20;;;0.20;;
2464;SDS011;1244;54.326;10.074;2023-05-07T05:45:24;0.20;;;0.20;;
2464;SDS011;1244;54.326;10.074;2023-05-07T05:47:50;0.20;;;0.20;;
2464;SDS011;1244;54.326;10.074;2023-05-07T05:50:16;0.20;;;0.20;;
2464;SDS011;1244;54.326;10.074;2023-05-07T05:52:42;0.30;;;0.30;;
2464;SDS011;1244;54.326;10.074;2023-05-07T05:55:08;0.30;;;0.30;;
2464;SDS011;1244;54.326;10.074;2023-05-07T05:57:33;0.30;;;0.30;;
2464;SDS011;1244;54.326;10.074;2023-05-07T06:00:00;0.30;;;0.30;;
2464;SDS011;1244;54.326;10.074;2023-05-07T06:02:26;0.20;;;0.20;;
2464;SDS011;1244;54.326;10.074;2023-05-07T06:04:52;0.30;;;0.30;;
2464;SDS011;1244;54.326;10.074;2023-05-07T06:07:17;0.30;;;0.30;;
2464;SDS011;1244;54.326;10.074;2023-05-07T06:09:43;0.30;;;0.30;;
2464;SDS011;1244;54.326;10.074;2023-05-07T06:12:09;0.30;;;0.30;;
2464;SDS011;1244;54.326;10.074;2023-05-07T06:14:34;0.30;;;0.30;;
2464;SDS011;1244;54.326;10.074;2023-05-07T06:17:00;0.37;;;0.37;;
2464;SDS011;1244;54.326;10.074;2023-05-07T06:19:25;0.30;;;0.30;;
2464;SDS011;1244;54.326;10.074;2023-05-07T06:21:53;0.23;;;0.23;;
2464;SDS011;1244;54.326;10.074;2023-05-07T06:24:18;0.30;;;0.30;;
2464;SDS011;1244;54.326;10.074;2023-05-07T06:26:44;0.20;;;0.20;;
2464;SDS011;1244;54.326;10.074;2023-05-07T06:29:10;0.20;;;0.20;;
2464;SDS011;1244;54.326;10.074;2023-05-07T06:31:35;0.20;;;0.20;;
2464;SDS011;1244;54.326;10.074;2023-05-07T06:34:01;0.20;;;0.20;;
2464;SDS011;1244;54.326;10.074;2023-05-07T06:36:27;0.20;;;0.20;;
2464;SDS011;1244;54.326;10.074;2023-05-07T06:38:53;0.20;;;0.20;;
2464;SDS011;1244;54.326;10.074;2023-05-07T06:41:18;0.20;;;0.20;;
2464;SDS011;1244;54.326;10.074;2023-05-07T06:43:45;0.20;;;0.20;;
2464;SDS011;1244;54.326;10.074;2023-05-07T06:46:10;0.30;;;0.30;;
2464;SDS011;1244;54.326;10.074;2023-05-07T06:48:36;0.30;;;0.30;;
2464;SDS011;1244;54.326;10.074;2023-05-07T06:51:01;0.20;;;0.20;;
2464;SDS011;1244;54.326;10.074;2023-05-07T06:53:27;0.33;;;0.33;;
2464;SDS011;1244;54.326;10.074;2023-05-07T06:55:54;0.40;;;0.40;;
2464;SDS011;1244;54.326;10.074;2023-05-07T06:58:20;0.20;;;0.20;;
2464;SDS011;1244;54.326;10.074;2023-05-07T07:00:45;0.20;;;0.20;;
2464;SDS011;1244;54.326;10.074;2023-05-07T07:03:11;0.20;;;0.20;;
2464;SDS011;1244;54.326;10.074;2023-05-07T07:05:36;0.20;;;0.20;;
2464;SDS011;1244;54.326;10.074;2023-05-07T07:08:02;0.20;;;0.20;;
2464;SDS011;1244;54.326;10.074;2023-05-07T07:10:27;0.20;;;0.20;;
2464;SDS011;1244;54.326;10.074;2023-05-07T07:12:53;0.20;;;0.20;;
2464;SDS011;1244;54.326;10.074;2023-05-07T07:15:19;0.20;;;0.20;;
2464;SDS011;1244;54.326;10.074;2023-05-07T07:17:45;0.20;;;0.20;;
2464;SDS011;1244;54.326;10.074;2023-05-07T07:20:11;0.20;;;0.20;;
2464;SDS011;1244;54.326;10.074;2023-05-07T07:22:36;0.20;;;0.20;;
2464;SDS011;1244;54.326;10.074;2023-05-07T07:25:02;0.20;;;0.20;;
2464;SDS011;1244;54.326;10.074;2023-05-07T07:27:28;0.20;;;0.20;;
2464;SDS011;1244;54.326;10.074;2023-05-07T07:29:53;0.20;;;0.20;;
2464;SDS011;1244;54.326;10.074;2023-05-07T07:32:18;0.20;;;0.20;;
2464;SDS011;1244;54.326;10.074;2023-05-07T07:34:44;0.20;;;0.20;;
2464;SDS011;1244;54.326;10.074;2023-05-07T07:37:09;0.20;;;0.20;;
2464;SDS011;1244;54.326;10.074;2023-05-07T07:39:35;0.20;;;0.20;;
2464;SDS011;1244;54.326;10.074;2023-05-07T07:42:02;0.20;;;0.20;;
2464;SDS011;1244;54.326;10.074;2023-05-07T07:44:28;0.20;;;0.20;;
2464;SDS011;1244;54.326;10.074;2023-05-07T07:46:53;0.20;;;0.20;;
2464;SDS011;1244;54.326;10.074;2023-05-07T07:49:19;0.20;;;0.20;;
2464;SDS011;1244;54.326;10.074;2023-05-07T07:51:44;0.20;;;0.20;;
2464;SDS011;1244;54.326;10.074;2023-05-07T07:54:10;0.20;;;0.20;;
2464;SDS011;1244;54.326;10.074;2023-05-07T07:56:36;0.20;;;0.20;;
2464;SDS011;1244;54.326;10.074;2023-05-07T07:59:01;0.20;;;0.20;;
2464;SDS011;1244;54.326;10.074;2023-05-07T08:01:29;0.20;;;0.20;;
2464;SDS011;1244;54.326;10.074;2023-05-07T08:03:55;0.20;;;0.20;;
2464;SDS011;1244;54.326;10.074;2023-05-07T08:06:20;0.17;;;0.17;;
2464;SDS011;1244;54.326;10.074;2023-05-07T08:08:46;0.20;;;0.20;;
2464;SDS011;1244;54.326;10.074;2023-05-07T08:11:11;0.20;;;0.20;;
2464;SDS011;1244;54.326;10.074;2023-05-07T08:13:37;0.20;;;0.20;;
2464;SDS011;1244;54.326;10.074;2023-05-07T08:16:03;0.20;;;0.20;;
2464;SDS011;1244;54.326;10.074;2023-05-07T08:18:29;0.20;;;0.20;;
2464;SDS011;1244;54.326;10.074;2023-05-07T08:20:55;0.20;;;0.20;;
2464;SDS011;1244;54.326;10.074;2023-05-07T08:23:21;0.20;;;0.20;;
2464;SDS011;1244;54.326;10.074;2023-05-07T08:25:46;0.10;;;0.10;;
2464;SDS011;1244;54.326;10.074;2023-05-07T08:28:12;0.10;;;0.10;;
2464;SDS011;1244;54.326;10.074;2023-05-07T08:30:38;0.10;;;0.10;;
2464;SDS011;1244;54.326;10.074;2023-05-07T08:33:04;0.20;;;0.20;;
2464;SDS011;1244;54.326;10.074;2023-05-07T08:35:29;0.20;;;0.20;;
2464;SDS011;1244;54.326;10.074;2023-05-07T08:37:55;0.10;;;0.10;;
2464;SDS011;1244;54.326;10.074;2023-05-07T08:40:22;0.20;;;0.20;;
2464;SDS011;1244;54.326;10.074;2023-05-07T08:42:51;0.20;;;0.20;;
2464;SDS011;1244;54.326;10.074;2023-05-07T08:45:18;0.20;;;0.20;;
2464;SDS011;1244;54.326;10.074;2023-05-07T08:47:46;0.20;;;0.20;;
2464;SDS011;1244;54.326;10.074;2023-05-07T08:50:15;0.20;;;0.20;;
2464;SDS011;1244;54.326;10.074;2023-05-07T08:52:40;0.10;;;0.10;;
2464;SDS011;1244;54.326;10.074;2023-05-07T08:55:07;0.10;;;0.10;;
2464;SDS011;1244;54.326;10.074;2023-05-07T08:57:33;0.10;;;0.10;;
2464;SDS011;1244;54.326;10.074;2023-05-07T08:59:59;0.10;;;0.10;;
2464;SDS011;1244;54.326;10.074;2023-05-07T09:02:25;0.10;;;0.10;;
2464;SDS011;1244;54.326;10.074;2023-05-07T09:04:50;0.10;;;0.10;;
2464;SDS011;1244;54.326;10.074;2023-05-07T09:07:16;0.10;;;0.10;;
2464;SDS011;1244;54.326;10.074;2023-05-07T09:09:43;0.10;;;0.10;;
2464;SDS011;1244;54.326;10.074;2023-05-07T09:12:09;0.20;;;0.20;;
2464;SDS011;1244;54.326;10.074;2023-05-07T09:14:34;0.10;;;0.10;;
2464;SDS011;1244;54.326;10.074;2023-05-07T09:17:00;0.10;;;0.10;;
2464;SDS011;1244;54.326;10.074;2023-05-07T09:19:26;0.10;;;0.10;;
2464;SDS011;1244;54.326;10.074;2023-05-07T09:22:02;0.10;;;0.10;;
2464;SDS011;1244;54.326;10.074;2023-05-07T09:24:29;0.10;;;0.10;;
2464;SDS011;1244;54.326;10.074;2023-05-07T09:26:59;0.10;;;0.10;;
2464;SDS011;1244;54.326;10.074;2023-05-07T09:29:28;0.20;;;0.20;;
2464;SDS011;1244;54.326;10.074;2023-05-07T09:31:55;0.10;;;0.10;;
2464;SDS011;1244;54.326;10.074;2023-05-07T09:34:21;0.10;;;0.10;;
2464;SDS011;1244;54.326;10.074;2023-05-07T09:36:47;0.10;;;0.10;;
2464;SDS011;1244;54.326;10.074;2023-05-07T09:39:13;0.10;;;0.10;;
2464;SDS011;1244;54.326;10.074;2023-05-07T09:41:44;0.20;;;0.20;;
2464;SDS011;1244;54.326;10.074;2023-05-07T09:44:14;0.10;;;0.10;;
2464;SDS011;1244;54.326;10.074;2023-05-07T09:46:41;0.10;;;0.10;;
2464;SDS011;1244;54.326;10.074;2023-05-07T09:49:08;0.10;;;0.10;;
2464;SDS011;1244;54.326;10.074;2023-05-07T09:51:45;0.10;;;0.10;;
2464;SDS011;1244;54.326;10.074;2023-05-07T09:54:14;0.10;;;0.10;;
2464;SDS011;1244;54.326;10.074;2023-05-07T09:56:42;0.10;;;0.10;;
2464;SDS011;1244;54.326;10.074;2023-05-07T09:59:10;0.10;;;0.10;;
2464;SDS011;1244;54.326;10.074;2023-05-07T10:01:38;0.10;;;0.10;;
2464;SDS011;1244;54.326;10.074;2023-05-07T10:04:07;0.10;;;0.10;;
2464;SDS011;1244;54.326;10.074;2023-05-07T10:06:36;0.10;;;0.10;;
2464;SDS011;1244;54.326;10.074;2023-05-07T10:09:05;0.10;;;0.10;;
2464;SDS011;1244;54.326;10.074;2023-05-07T10:11:32;0.10;;;0.10;;
2464;SDS011;1244;54.326;10.074;2023-05-07T10:14:04;0.10;;;0.10;;
2464;SDS011;1244;54.326;10.074;2023-05-07T10:16:35;0.10;;;0.10;;
2464;SDS011;1244;54.326;10.074;2023-05-07T10:19:02;0.10;;;0.10;;
2464;SDS011;1244;54.326;10.074;2023-05-07T10:21:33;0.10;;;0.10;;
2464;SDS011;1244;54.326;10.074;2023-05-07T10:24:10;0.10;;;0.10;;
2464;SDS011;1244;54.326;10.074;2023-05-07T10:26:45;0.10;;;0.10;;
2464;SDS011;1244;54.326;10.074;2023-05-07T10:29:15;0.10;;;0.10;;
2464;SDS011;1244;54.326;10.074;2023-05-07T10:32:02;0.10;;;0.10;;
2464;SDS011;1244;54.326;10.074;2023-05-07T10:34:36;0.10;;;0.10;;
2464;SDS011;1244;54.326;10.074;2023-05-07T10:37:05;0.10;;;0.10;;
2464;SDS011;1244;54.326;10.074;2023-05-07T10:39:31;0.10;;;0.10;;
2464;SDS011;1244;54.326;10.074;2023-05-07T10:42:03;0.10;;;0.10;;
2464;SDS011;1244;54.326;10.074;2023-05-07T10:44:33;0.10;;;0.10;;
2464;SDS011;1244;54.326;10.074;2023-05-07T10:47:03;0.10;;;0.10;;
2464;SDS011;1244;54.326;10.074;2023-05-07T10:49:34;0.10;;;0.10;;
2464;SDS011;1244;54.326;10.074;2023-05-07T10:52:13;0.10;;;0.10;;
2464;SDS011;1244;54.326;10.074;2023-05-07T10:54:41;0.10;;;0.10;;
2464;SDS011;1244;54.326;10.074;2023-05-07T11:00:48;0.10;;;0.10;;
2464;SDS011;1244;54.326;10.074;2023-05-07T11:05:29;0.10;;;0.10;;
2464;SDS011;1244;54.326;10.074;2023-05-07T11:07:57;0.10;;;0.10;;
2464;SDS011;1244;54.326;10.074;2023-05-07T11:10:23;0.10;;;0.00;;
2464;SDS011;1244;54.326;10.074;2023-05-07T11:13:18;0.10;;;0.10;;
2464;SDS011;1244;54.326;10.074;2023-05-07T11:16:04;0.10;;;0.10;;
2464;SDS011;1244;54.326;10.074;2023-05-07T11:18:46;0.10;;;0.10;;
2464;SDS011;1244;54.326;10.074;2023-05-07T11:21:34;0.10;;;0.10;;
2464;SDS011;1244;54.326;10.074;2023-05-07T11:24:01;0.10;;;0.10;;
2464;SDS011;1244;54.326;10.074;2023-05-07T11:26:31;0.10;;;0.10;;
2464;SDS011;1244;54.326;10.074;2023-05-07T11:29:17;0.00;;;0.00;;
2464;SDS011;1244;54.326;10.074;2023-05-07T11:31:44;0.00;;;0.00;;
2464;SDS011;1244;54.326;10.074;2023-05-07T11:34:14;0.00;;;0.00;;
2464;SDS011;1244;54.326;10.074;2023-05-07T11:36:45;0.00;;;0.00;;
2464;SDS011;1244;54.326;10.074;2023-05-07T11:41:50;0.00;;;0.00;;
2464;SDS011;1244;54.326;10.074;2023-05-07T11:44:16;0.00;;;0.00;;
2464;SDS011;1244;54.326;10.074;2023-05-07T11:46:45;0.00;;;0.00;;
2464;SDS011;1244;54.326;10.074;2023-05-07T11:49:10;0.00;;;0.00;;
2464;SDS011;1244;54.326;10.074;2023-05-07T11:51:36;0.00;;;0.00;;
2464;SDS011;1244;54.326;10.074;2023-05-07T11:54:03;0.00;;;0.00;;
2464;SDS011;1244;54.326;10.074;2023-05-07T11:56:33;0.00;;;0.00;;
2464;SDS011;1244;54.326;10.074;2023-05-07T11:59:00;0.00;;;0.00;;
2464;SDS011;1244;54.326;10.074;2023-05-07T12:01:25;0.00;;;0.00;;
2464;SDS011;1244;54.326;10.074;2023-05-07T12:03:51;0.00;;;0.00;;
2464;SDS011;1244;54.326;10.074;2023-05-07T12:06:17;0.00;;;0.00;;
2464;SDS011;1244;54.326;10.074;2023-05-07T12:08:44;0.00;;;0.00;;
2464;SDS011;1244;54.326;10.074;2023-05-07T12:11:12;0.00;;;0.00;;
2464;SDS011;1244;54.326;10.074;2023-05-07T12:13:47;0.00;;;0.00;;
2464;SDS011;1244;54.326;10.074;2023-05-07T12:16:12;0.00;;;0.00;;
2464;SDS011;1244;54.326;10.074;2023-05-07T12:18:38;0.00;;;0.00;;
2464;SDS011;1244;54.326;10.074;2023-05-07T12:21:05;0.00;;;0.00;;
2464;SDS011;1244;54.326;10.074;2023-05-07T12:23:31;0.00;;;0.00;;
2464;SDS011;1244;54.326;10.074;2023-05-07T12:25:58;0.00;;;0.00;;
2464;SDS011;1244;54.326;10.074;2023-05-07T12:28:24;0.00;;;0.00;;
2464;SDS011;1244;54.326;10.074;2023-05-07T12:30:50;0.00;;;0.00;;
2464;SDS011;1244;54.326;10.074;2023-05-07T12:33:18;0.00;;;0.00;;
2464;SDS011;1244;54.326;10.074;2023-05-07T12:35:48;0.00;;;0.00;;
2464;SDS011;1244;54.326;10.074;2023-05-07T12:38:14;0.00;;;0.00;;
2464;SDS011;1244;54.326;10.074;2023-05-07T12:40:43;0.00;;;0.00;;
2464;SDS011;1244;54.326;10.074;2023-05-07T12:46:08;0.00;;;0.00;;
2464;SDS011;1244;54.326;10.074;2023-05-07T12:48:35;0.00;;;0.00;;
2464;SDS011;1244;54.326;10.074;2023-05-07T12:51:02;0.00;;;0.00;;
2464;SDS011;1244;54.326;10.074;2023-05-07T12:53:28;0.00;;;0.00;;
2464;SDS011;1244;54.326;10.074;2023-05-07T12:55:55;0.00;;;0.00;;
2464;SDS011;1244;54.326;10.074;2023-05-07T12:58:27;0.00;;;0.00;;
2464;SDS011;1244;54.326;10.074;2023-05-07T13:00:58;0.00;;;0.00;;
2464;SDS011;1244;54.326;10.074;2023-05-07T13:03:26;0.00;;;0.00;;
2464;SDS011;1244;54.326;10.074;2023-05-07T13:05:56;0.00;;;0.00;;
2464;SDS011;1244;54.326;10.074;2023-05-07T13:08:33;0.00;;;0.00;;
2464;SDS011;1244;54.326;10.074;2023-05-07T13:11:01;0.00;;;0.00;;
2464;SDS011;1244;54.326;10.074;2023-05-07T13:13:30;0.00;;;0.00;;
2464;SDS011;1244;54.326;10.074;2023-05-07T13:15:56;0.00;;;0.00;;
2464;SDS011;1244;54.326;10.074;2023-05-07T13:18:22;0.00;;;0.00;;
2464;SDS011;1244;54.326;10.074;2023-05-07T13:20:49;0.00;;;0.00;;
2464;SDS011;1244;54.326;10.074;2023-05-07T13:23:14;0.00;;;0.00;;
2464;SDS011;1244;54.326;10.074;2023-05-07T13:25:40;0.00;;;0.00;;
2464;SDS011;1244;54.326;10.074;2023-05-07T13:28:05;0.00;;;0.00;;
2464;SDS011;1244;54.326;10.074;2023-05-07T13:30:31;0.00;;;0.00;;
2464;SDS011;1244;54.326;10.074;2023-05-07T13:32:56;0.00;;;0.00;;
2464;SDS011;1244;54.326;10.074;2023-05-07T13:35:22;0.00;;;0.00;;
2464;SDS011;1244;54.326;10.074;2023-05-07T13:37:48;0.00;;;0.00;;
2464;SDS011;1244;54.326;10.074;2023-05-07T13:40:14;0.00;;;0.00;;
2464;SDS011;1244;54.326;10.074;2023-05-07T13:42:40;0.00;;;0.00;;
2464;SDS011;1244;54.326;10.074;2023-05-07T13:45:06;0.00;;;0.00;;
2464;SDS011;1244;54.326;10.074;2023-05-07T13:47:32;0.00;;;0.00;;
2464;SDS011;1244;54.326;10.074;2023-05-07T13:49:57;0.00;;;0.00;;
2464;SDS011;1244;54.326;10.074;2023-05-07T13:52:23;0.00;;;0.00;;
2464;SDS011;1244;54.326;10.074;2023-05-07T13:54:49;0.00;;;0.00;;
2464;SDS011;1244;54.326;10.074;2023-05-07T13:57:14;0.00;;;0.00;;
2464;SDS011;1244;54.326;10.074;2023-05-07T13:59:40;0.00;;;0.00;;
2464;SDS011;1244;54.326;10.074;2023-05-07T14:02:06;0.00;;;0.00;;
2464;SDS011;1244;54.326;10.074;2023-05-07T14:04:31;0.00;;;0.00;;
2464;SDS011;1244;54.326;10.074;2023-05-07T14:06:57;0.00;;;0.00;;
2464;SDS011;1244;54.326;10.074;2023-05-07T14:09:22;0.00;;;0.00;;
2464;SDS011;1244;54.326;10.074;2023-05-07T14:11:48;0.00;;;0.00;;
2464;SDS011;1244;54.326;10.074;2023-05-07T14:14:16;0.00;;;0.00;;
2464;SDS011;1244;54.326;10.074;2023-05-07T14:16:42;0.00;;;0.00;;
2464;SDS011;1244;54.326;10.074;2023-05-07T14:19:08;0.00;;;0.00;;
2464;SDS011;1244;54.326;10.074;2023-05-07T14:21:33;0.00;;;0.00;;
2464;SDS011;1244;54.326;10.074;2023-05-07T14:23:58;0.00;;;0.00;;
2464;SDS011;1244;54.326;10.074;2023-05-07T14:26:25;0.00;;;0.00;;
2464;SDS011;1244;54.326;10.074;2023-05-07T14:28:51;0.00;;;0.00;;
2464;SDS011;1244;54.326;10.074;2023-05-07T14:31:19;0.00;;;0.00;;
2464;SDS011;1244;54.326;10.074;2023-05-07T14:33:45;0.00;;;0.00;;
2464;SDS011;1244;54.326;10.074;2023-05-07T14:36:11;0.00;;;0.00;;
2464;SDS011;1244;54.326;10.074;2023-05-07T14:38:37;0.00;;;0.00;;
2464;SDS011;1244;54.326;10.074;2023-05-07T14:41:03;0.00;;;0.00;;
2464;SDS011;1244;54.326;10.074;2023-05-07T14:43:28;0.00;;;0.00;;
2464;SDS011;1244;54.326;10.074;2023-05-07T14:45:54;0.00;;;0.00;;
2464;SDS011;1244;54.326;10.074;2023-05-07T14:48:19;0.00;;;0.00;;
2464;SDS011;1244;54.326;10.074;2023-05-07T14:50:46;0.00;;;0.00;;
2464;SDS011;1244;54.326;10.074;2023-05-07T14:53:13;0.00;;;0.00;;
2464;SDS011;1244;54.326;10.074;2023-05-07T14:55:38;0.00;;;0.00;;
2464;SDS011;1244;54.326;10.074;2023-05-07T14:58:04;0.00;;;0.00;;
2464;SDS011;1244;54.326;10.074;2023-05-07T15:00:29;0.00;;;0.00;;
2464;SDS011;1244;54.326;10.074;2023-05-07T15:03:00;0.00;;;0.00;;
2464;SDS011;1244;54.326;10.074;2023-05-07T15:05:35;0.00;;;0.00;;
2464;SDS011;1244;54.326;10.074;2023-05-07T15:08:01;0.00;;;0.00;;
2464;SDS011;1244;54.326;10.074;2023-05-07T15:10:26;0.00;;;0.00;;